Hlavní strana
METAR-TAF:

METAR-TAF

Letiště :

Newberry, Jižní Karolína, Spojené státy americké

zeměpisná šířka: 34-18-34N, zeměpisná délka: 081-38-26W, výška: 174 m

Aktuální stav počasí

Zpráva byla vytvořena před 13 minutami, v 17:15 UTC
Severní vítr 11 kt
Teplota 5°C
Vlhkost vzduchu 100%
Tlak 1021 hPa
Viditelnost: 11.3 km
Oblačno až skoro zataženo ve výšce 3100 ft
Zataženo ve výšce 3800 ft
déšť

METAR: KEOE 151715Z AUTO 01011KT 7SM RA BKN031 OVC038 05/05 A3016 RMK AO2 P0001

Čas: 12:28 (17:28 UTC)


TAF: chybějící

Stav a předpovědi počasí z více než 4 000 letišť (zprávy METAR a TAF).

Červené a žluté tečky na mapě představují dostupné meteorologické stanice.

Když kurzor umístíte na tečku, zobrazí se název stanice.

Pak kliknutím zobrazíte stav a předpověď počasí.

Chcete-li změnit mapu, kliknutím na zelené tlačítko se znaménkem +mapu přiblížíte, kliknutím na zelené tlačítko se znaménkem – mapu oddálíte a kliknutím na zelené šipky přejdete na sousední mapy.


METAR-TAF: